Time;durP1;ratioP1;P1;durP2;ratioP2;P2;SDS_P1;SDS_P2;PMS_P1;PMS_P2;Temp;Humidity;BMP_temperature;BMP_pressure;BME280_temperature;BME280_humidity;BME280_pressure;Samples;Min_cycle;Max_cycle;Signal;HPM_P1;HPM_P2
2022/11/28 00:01:46;;;;;;;8.30;5.65;;;18.00;50.80;;;;;;4993899;28;20205;-69
2022/11/28 00:04:14;;;;;;;8.52;5.60;;;17.90;50.80;;;;;;4994361;28;20201;-69
2022/11/28 00:06:44;;;;;;;6.75;5.50;;;17.90;50.80;;;;;;4994986;28;20194;-69
2022/11/28 00:09:11;;;;;;;9.77;5.72;;;17.90;50.90;;;;;;4993828;28;20783;-69
2022/11/28 00:11:39;;;;;;;8.18;6.22;;;17.90;51.00;;;;;;4994473;28;20202;-69
2022/11/28 00:14:06;;;;;;;7.70;5.63;;;17.80;51.00;;;;;;4994809;28;20684;-69
2022/11/28 00:16:33;;;;;;;6.90;5.40;;;17.80;50.90;;;;;;4993727;28;20198;-69
2022/11/28 00:19:00;;;;;;;6.07;5.00;;;17.80;51.00;;;;;;4993645;28;20217;-69
2022/11/28 00:21:29;;;;;;;7.28;5.30;;;17.80;51.10;;;;;;4994872;28;20197;-69
2022/11/28 00:23:56;;;;;;;6.85;5.43;;;17.80;51.10;;;;;;4993914;28;20288;-69
2022/11/28 00:26:24;;;;;;;7.03;5.30;;;17.70;51.00;;;;;;4993607;28;20201;-69
2022/11/28 00:28:52;;;;;;;6.43;5.47;;;17.70;51.10;;;;;;4993479;28;20225;-69
2022/11/28 00:31:22;;;;;;;6.82;5.57;;;17.70;51.20;;;;;;4993536;28;20201;-69
2022/11/28 00:33:49;;;;;;;6.80;5.28;;;17.70;51.20;;;;;;4993410;28;20240;-69
2022/11/28 00:36:16;;;;;;;7.10;5.45;;;17.70;51.30;;;;;;4993508;28;20220;-69
2022/11/28 00:38:45;;;;;;;7.13;5.07;;;17.60;51.20;;;;;;4977673;28;20217;-69
2022/11/28 00:41:13;;;;;;;7.53;5.60;;;17.60;51.30;;;;;;4994940;28;20200;-69
2022/11/28 00:43:40;;;;;;;6.40;5.45;;;17.60;51.30;;;;;;4993229;28;20244;-69
2022/11/28 00:46:07;;;;;;;7.80;5.55;;;17.60;51.30;;;;;;5009659;28;20668;-69
2022/11/28 00:48:34;;;;;;;6.45;5.18;;;17.60;51.30;;;;;;4993812;28;20312;-70
2022/11/28 00:51:05;;;;;;;7.03;5.43;;;17.60;51.30;;;;;;4993558;28;20201;-70
2022/11/28 00:53:32;;;;;;;6.55;5.22;;;17.50;51.20;;;;;;4994535;28;20192;-69
2022/11/28 00:56:00;;;;;;;6.28;4.95;;;17.50;51.30;;;;;;4994766;28;20684;-69
2022/11/28 00:58:27;;;;;;;5.68;4.70;;;17.50;51.30;;;;;;5010113;28;20221;-69
2022/11/28 01:00:54;;;;;;;6.93;5.03;;;17.50;51.30;;;;;;4998909;28;20201;-69
2022/11/28 01:03:21;;;;;;;6.10;4.85;;;17.50;51.30;;;;;;5000947;28;20187;-69
2022/11/28 01:05:48;;;;;;;6.85;5.00;;;17.50;51.40;;;;;;4999916;28;20652;-69
2022/11/28 01:08:15;;;;;;;5.50;4.57;;;17.40;51.30;;;;;;5000017;28;20205;-69
2022/11/28 01:10:43;;;;;;;6.88;4.95;;;17.40;51.20;;;;;;4999931;28;20622;-69
2022/11/28 01:13:11;;;;;;;6.43;4.82;;;17.40;51.40;;;;;;5000996;28;20639;-69
2022/11/28 01:15:40;;;;;;;5.85;4.78;;;17.40;51.40;;;;;;5000241;28;20565;-69
2022/11/28 01:18:07;;;;;;;6.47;5.10;;;17.40;51.50;;;;;;4999555;28;20267;-69
2022/11/28 01:20:35;;;;;;;5.80;4.55;;;17.40;51.40;;;;;;5000697;28;20559;-69
2022/11/28 01:23:02;;;;;;;6.43;4.53;;;17.40;51.40;;;;;;4999436;28;20205;-69
2022/11/28 01:25:29;;;;;;;6.07;4.80;;;17.40;51.50;;;;;;4999468;28;20208;-69
2022/11/28 01:27:56;;;;;;;7.13;4.68;;;17.40;51.50;;;;;;4999357;28;20201;-69
2022/11/28 01:30:24;;;;;;;5.80;4.60;;;17.40;51.50;;;;;;4999488;28;20231;-69
2022/11/28 01:32:51;;;;;;;6.30;4.72;;;17.30;51.50;;;;;;4999283;28;20256;-69
2022/11/28 01:35:18;;;;;;;6.22;4.47;;;17.30;51.50;;;;;;5015673;28;20214;-69
2022/11/28 01:37:46;;;;;;;5.65;4.88;;;17.30;51.50;;;;;;4999407;28;20652;-69
2022/11/28 01:40:13;;;;;;;6.15;4.75;;;17.30;51.50;;;;;;5015657;28;20221;-69
2022/11/28 01:42:40;;;;;;;5.90;4.60;;;17.30;51.60;;;;;;4999225;28;20252;-70
2022/11/28 01:45:15;;;;;;;5.18;4.65;;;17.30;51.50;;;;;;5000087;28;20200;-70
2022/11/28 01:47:44;;;;;;;5.53;4.55;;;17.30;51.60;;;;;;4999554;28;20296;-70
2022/11/28 01:50:10;;;;;;;6.00;5.10;;;17.30;51.60;;;;;;4999356;28;20232;-70
2022/11/28 01:52:38;;;;;;;4.93;4.35;;;17.30;51.80;;;;;;4999482;28;20197;-70
2022/11/28 01:55:06;;;;;;;6.15;4.57;;;17.20;51.60;;;;;;4999004;28;20225;-70
2022/11/28 01:57:33;;;;;;;5.30;4.60;;;17.20;51.70;;;;;;4999107;28;20295;-70
2022/11/28 02:00:04;;;;;;;5.03;4.35;;;17.20;51.60;;;;;;5000222;28;20285;-70
2022/11/28 02:02:40;;;;;;;6.63;4.70;;;17.20;51.70;;;;;;5000629;28;20555;-70
2022/11/28 02:05:09;;;;;;;5.60;4.68;;;17.20;51.70;;;;;;5000256;28;20338;-70
2022/11/28 02:07:36;;;;;;;5.72;4.35;;;17.20;51.70;;;;;;4998943;28;20207;-70
2022/11/28 02:10:05;;;;;;;5.22;4.30;;;17.20;51.70;;;;;;4998979;28;20225;-70
2022/11/28 02:12:38;;;;;;;5.03;4.20;;;17.10;51.70;;;;;;4995416;28;20209;-70
2022/11/28 02:15:26;;;;;;;4.50;4.10;;;17.10;51.90;;;;;;4995894;28;20691;-70
2022/11/28 02:18:17;;;;;;;6.22;4.60;;;17.20;51.80;;;;;;4995955;28;20194;-70
2022/11/28 02:21:06;;;;;;;4.75;4.28;;;17.10;51.90;;;;;;4997243;28;20657;-70
2022/11/28 02:23:44;;;;;;;5.38;4.47;;;17.10;51.80;;;;;;4997078;28;20177;-70
2022/11/28 02:26:58;;;;;;;5.53;4.47;;;17.10;51.70;;;;;;4995759;28;20200;-70
2022/11/28 02:30:15;;;;;;;4.38;3.97;;;17.10;51.90;;;;;;4937685;29;20230;-69
2022/11/28 02:32:53;;;;;;;4.78;4.20;;;17.10;51.90;;;;;;4888823;29;20203;-69
2022/11/28 02:35:23;;;;;;;6.20;4.30;;;17.10;51.80;;;;;;4985291;28;20223;-69
2022/11/28 02:37:55;;;;;;;4.38;3.97;;;17.10;51.90;;;;;;4995487;28;20205;-69
2022/11/28 02:40:23;;;;;;;4.55;4.10;;;17.00;51.80;;;;;;4995394;28;20225;-69
2022/11/28 02:42:56;;;;;;;4.68;4.18;;;17.00;51.70;;;;;;4995649;28;20206;-69
2022/11/28 02:45:27;;;;;;;4.70;4.30;;;17.00;51.90;;;;;;4995434;28;20197;-69
2022/11/28 02:47:58;;;;;;;4.97;4.38;;;17.00;51.80;;;;;;4995313;28;20185;-69
2022/11/28 02:50:28;;;;;;;4.68;4.10;;;17.00;51.80;;;;;;5011540;28;20231;-69
2022/11/28 02:52:57;;;;;;;4.47;4.07;;;17.00;51.80;;;;;;4997169;28;20193;-69
2022/11/28 02:55:24;;;;;;;3.85;3.55;;;17.00;51.90;;;;;;4995653;28;20213;-69
2022/11/28 02:57:52;;;;;;;4.80;4.05;;;17.00;51.90;;;;;;4995536;28;20280;-69
2022/11/28 03:00:24;;;;;;;5.13;3.92;;;17.00;51.90;;;;;;4996287;28;20219;-69
2022/11/28 03:02:54;;;;;;;4.18;3.75;;;17.00;51.90;;;;;;4995111;28;20691;-69
2022/11/28 03:05:24;;;;;;;4.57;4.05;;;17.00;51.90;;;;;;4994970;28;20745;-69
2022/11/28 03:07:57;;;;;;;5.45;4.30;;;17.00;51.90;;;;;;4996419;28;20182;-69
2022/11/28 03:10:27;;;;;;;5.45;4.20;;;16.90;52.40;;;;;;4996300;28;20289;-69
2022/11/28 03:12:58;;;;;;;4.55;3.80;;;16.90;51.90;;;;;;4996340;28;20273;-69
2022/11/28 03:15:28;;;;;;;4.63;3.80;;;16.90;51.80;;;;;;4994794;28;20216;-69
2022/11/28 03:18:01;;;;;;;5.40;4.30;;;16.90;51.90;;;;;;4994856;28;20572;-69
2022/11/28 03:20:32;;;;;;;4.40;3.83;;;16.90;51.80;;;;;;4996877;28;20680;-69
2022/11/28 03:23:05;;;;;;;4.40;4.00;;;16.90;52.00;;;;;;4993628;28;20193;-69
2022/11/28 03:25:36;;;;;;;4.10;3.70;;;16.90;52.00;;;;;;5010996;28;20194;-69
2022/11/28 03:28:06;;;;;;;4.28;3.70;;;16.90;51.90;;;;;;4994573;28;20197;-69
2022/11/28 03:30:34;;;;;;;4.43;3.70;;;16.90;51.90;;;;;;4995745;28;20660;-69
2022/11/28 03:33:01;;;;;;;4.30;3.90;;;16.90;51.90;;;;;;4995029;28;20255;-69
2022/11/28 03:35:31;;;;;;;4.45;3.97;;;16.80;51.90;;;;;;4994479;28;20300;-69
2022/11/28 03:38:01;;;;;;;4.05;3.55;;;16.80;51.80;;;;;;4994670;28;20197;-69
2022/11/28 03:40:29;;;;;;;4.50;4.07;;;16.80;52.00;;;;;;4994438;28;20224;-69
2022/11/28 03:42:58;;;;;;;4.22;3.78;;;16.80;52.00;;;;;;4994223;28;20229;-69
2022/11/28 03:45:26;;;;;;;4.68;4.00;;;16.80;51.90;;;;;;4994517;28;20281;-69
2022/11/28 03:47:55;;;;;;;4.47;3.80;;;16.80;52.00;;;;;;4994265;28;20673;-69
2022/11/28 03:50:26;;;;;;;4.30;3.80;;;16.80;52.10;;;;;;4995571;28;20213;-69
2022/11/28 03:52:58;;;;;;;4.30;3.80;;;16.80;52.10;;;;;;4994024;28;20194;-69
2022/11/28 03:55:27;;;;;;;4.20;3.80;;;16.80;52.10;;;;;;4995258;28;20208;-69
2022/11/28 03:57:57;;;;;;;4.28;3.88;;;16.80;52.00;;;;;;4993912;28;20216;-69
2022/11/28 04:00:24;;;;;;;5.65;4.15;;;16.70;51.90;;;;;;4994262;28;20554;-69
2022/11/28 04:02:54;;;;;;;4.28;3.88;;;16.70;51.90;;;;;;4995160;28;20198;-69
2022/11/28 04:05:24;;;;;;;4.00;3.70;;;16.80;52.00;;;;;;4993882;28;20568;-69
2022/11/28 04:07:54;;;;;;;4.32;3.92;;;16.80;52.00;;;;;;4993821;28;20227;-69
2022/11/28 04:10:22;;;;;;;4.00;3.70;;;16.70;51.80;;;;;;4993711;28;20221;-69
2022/11/28 04:12:53;;;;;;;4.40;4.00;;;16.80;52.00;;;;;;4994253;28;20197;-69
2022/11/28 04:15:25;;;;;;;4.10;3.55;;;16.80;51.90;;;;;;4994966;28;20252;-69
2022/11/28 04:17:54;;;;;;;4.32;3.80;;;16.80;52.00;;;;;;4993578;28;20205;-69
2022/11/28 04:20:25;;;;;;;4.18;3.80;;;16.80;52.10;;;;;;4993659;28;20228;-69
2022/11/28 04:22:55;;;;;;;3.80;3.45;;;16.80;52.50;;;;;;4994200;28;20190;-69
2022/11/28 04:25:22;;;;;;;4.40;4.00;;;16.70;52.50;;;;;;4995073;28;20196;-69
2022/11/28 04:27:54;;;;;;;4.40;4.00;;;16.70;52.50;;;;;;4993599;28;20559;-69
2022/11/28 04:30:22;;;;;;;4.13;3.80;;;16.80;52.60;;;;;;4994057;28;20244;-69
2022/11/28 04:32:52;;;;;;;4.10;3.55;;;16.80;52.50;;;;;;4993425;28;20198;-69
2022/11/28 04:35:22;;;;;;;4.07;3.67;;;16.80;52.50;;;;;;5009370;28;20221;-69
2022/11/28 04:37:49;;;;;;;4.18;3.78;;;16.90;52.40;;;;;;4994670;28;20194;-69
2022/11/28 04:40:18;;;;;;;4.05;3.65;;;16.90;52.30;;;;;;4994407;28;20217;-69
2022/11/28 04:42:47;;;;;;;3.97;3.65;;;16.90;52.10;;;;;;4993540;28;20207;-69
2022/11/28 04:45:16;;;;;;;3.97;3.58;;;16.90;52.10;;;;;;4994676;28;20186;-69
2022/11/28 04:47:43;;;;;;;4.28;3.58;;;16.90;52.10;;;;;;4993249;28;20197;-69
2022/11/28 04:50:12;;;;;;;4.03;3.63;;;16.90;52.10;;;;;;4994409;28;20216;-69
2022/11/28 04:52:40;;;;;;;4.10;3.70;;;17.00;52.10;;;;;;4993264;28;20606;-69
2022/11/28 04:55:09;;;;;;;3.85;3.55;;;17.00;51.90;;;;;;4994107;28;20221;-69
2022/11/28 04:57:38;;;;;;;4.20;3.70;;;17.00;51.90;;;;;;4993410;28;20225;-69
2022/11/28 05:00:06;;;;;;;3.78;3.47;;;17.00;51.90;;;;;;4993638;28;20271;-69
2022/11/28 05:02:34;;;;;;;4.10;3.70;;;17.00;51.80;;;;;;4993900;28;20205;-69
2022/11/28 05:05:00;;;;;;;3.85;3.50;;;17.00;51.80;;;;;;5011574;28;20198;-70
2022/11/28 05:07:27;;;;;;;3.58;3.28;;;17.00;51.80;;;;;;4995707;28;20201;-70
2022/11/28 05:09:56;;;;;;;4.10;3.78;;;17.00;51.40;;;;;;4997512;28;20249;-71
2022/11/28 05:12:23;;;;;;;4.78;3.90;;;17.00;51.00;;;;;;5011295;28;20197;-71
2022/11/28 05:14:52;;;;;;;3.75;3.42;;;17.00;51.10;;;;;;4993822;28;20204;-71
2022/11/28 05:17:19;;;;;;;4.07;3.40;;;17.10;51.20;;;;;;4993137;28;20638;-71
2022/11/28 05:19:46;;;;;;;3.60;3.30;;;17.10;51.70;;;;;;4993373;28;20585;-71
2022/11/28 05:22:13;;;;;;;3.85;3.45;;;17.10;51.70;;;;;;5009898;28;20671;-71
2022/11/28 05:24:40;;;;;;;4.78;3.80;;;17.10;52.00;;;;;;4993799;28;20333;-71
2022/11/28 05:27:07;;;;;;;3.60;3.25;;;17.20;52.30;;;;;;5009393;28;20198;-71
2022/11/28 05:29:35;;;;;;;3.92;3.55;;;17.20;51.20;;;;;;4992899;28;20267;-71
2022/11/28 05:32:03;;;;;;;3.63;3.33;;;17.20;50.80;;;;;;4992918;28;20201;-71
2022/11/28 05:34:30;;;;;;;3.80;3.50;;;17.20;51.60;;;;;;4992865;28;20201;-71
2022/11/28 05:36:58;;;;;;;3.92;3.50;;;17.30;50.90;;;;;;4992768;28;20590;-70
2022/11/28 05:39:26;;;;;;;3.65;3.35;;;17.30;50.70;;;;;;4993109;28;20304;-71
2022/11/28 05:41:54;;;;;;;3.80;3.50;;;17.30;51.20;;;;;;4994061;28;20201;-71
2022/11/28 05:44:22;;;;;;;4.30;3.10;;;17.30;51.00;;;;;;4992966;28;20202;-71
2022/11/28 05:46:49;;;;;;;4.78;3.40;;;17.40;50.80;;;;;;5010442;28;20190;-71
2022/11/28 05:49:19;;;;;;;3.90;3.35;;;17.40;50.80;;;;;;5012749;28;20240;-71
2022/11/28 05:51:46;;;;;;;4.07;3.60;;;17.40;50.60;;;;;;4997019;28;20225;-71
2022/11/28 05:54:13;;;;;;;3.92;3.40;;;17.40;50.70;;;;;;4996512;28;20201;-71
2022/11/28 05:56:40;;;;;;;3.67;3.38;;;17.40;50.50;;;;;;5013173;28;20228;-71
2022/11/28 05:59:07;;;;;;;3.78;3.47;;;17.40;51.40;;;;;;4996754;28;20228;-71
2022/11/28 06:01:34;;;;;;;4.45;3.38;;;17.40;50.50;;;;;;5012501;28;20208;-71
2022/11/28 06:04:01;;;;;;;4.03;3.63;;;17.50;50.50;;;;;;4996717;28;20201;-71
2022/11/28 06:06:30;;;;;;;4.00;3.50;;;17.50;50.20;;;;;;4996812;28;20206;-71
2022/11/28 06:08:57;;;;;;;3.90;3.50;;;17.50;50.30;;;;;;4996370;28;20213;-71
2022/11/28 06:11:26;;;;;;;3.47;3.17;;;17.50;50.20;;;;;;4996195;28;20198;-71
2022/11/28 06:13:52;;;;;;;3.60;3.25;;;17.50;50.40;;;;;;4996923;28;20571;-71
2022/11/28 06:16:21;;;;;;;3.90;3.55;;;17.40;50.30;;;;;;4996273;28;20263;-71
2022/11/28 06:18:49;;;;;;;4.03;3.45;;;17.50;50.50;;;;;;5012640;28;20592;-71
2022/11/28 06:21:16;;;;;;;4.00;3.60;;;17.50;50.50;;;;;;4996298;28;20292;-72
2022/11/28 06:23:44;;;;;;;4.07;3.50;;;17.50;50.20;;;;;;4996729;28;20554;-72
2022/11/28 06:26:12;;;;;;;3.85;3.42;;;17.50;50.20;;;;;;4996654;28;20234;-71
2022/11/28 06:28:40;;;;;;;3.75;3.45;;;17.50;50.20;;;;;;4995957;28;20249;-71
2022/11/28 06:31:10;;;;;;;4.15;3.75;;;17.50;50.10;;;;;;4995847;28;20284;-71
2022/11/28 06:33:37;;;;;;;3.90;3.42;;;17.50;49.90;;;;;;4997378;28;20197;-71
2022/11/28 06:36:05;;;;;;;4.30;3.70;;;17.50;50.70;;;;;;4995487;28;20232;-71
2022/11/28 06:38:32;;;;;;;4.22;3.45;;;17.50;50.10;;;;;;4996193;28;20217;-71
2022/11/28 06:41:02;;;;;;;3.83;3.53;;;17.50;50.20;;;;;;4997173;28;20216;-71
2022/11/28 06:43:29;;;;;;;3.60;3.30;;;17.50;50.20;;;;;;4996188;28;20197;-71
2022/11/28 06:45:56;;;;;;;4.13;3.40;;;17.60;49.80;;;;;;4995502;28;20190;-71
2022/11/28 06:48:23;;;;;;;3.70;3.17;;;17.60;49.60;;;;;;4995386;28;20205;-71
2022/11/28 06:50:52;;;;;;;4.40;3.55;;;17.60;49.40;;;;;;4995697;28;20271;-71
2022/11/28 06:53:20;;;;;;;3.45;3.15;;;17.70;49.50;;;;;;4995288;28;20232;-71
2022/11/28 06:55:47;;;;;;;3.65;3.33;;;17.70;49.30;;;;;;5011475;28;20583;-71
2022/11/28 06:58:15;;;;;;;3.90;3.50;;;17.80;49.20;;;;;;4994932;28;20202;-71
2022/11/28 07:00:42;;;;;;;3.55;3.25;;;17.80;49.10;;;;;;4996232;28;20197;-71
2022/11/28 07:03:11;;;;;;;3.72;3.20;;;17.80;49.10;;;;;;4995567;28;20680;-71
2022/11/28 07:05:38;;;;;;;3.47;3.17;;;17.90;49.00;;;;;;5011432;28;20593;-71
2022/11/28 07:08:06;;;;;;;5.18;3.45;;;17.90;49.10;;;;;;4995004;28;20570;-71
2022/11/28 07:10:33;;;;;;;3.42;3.13;;;17.90;49.00;;;;;;4996150;28;20582;-71
2022/11/28 07:13:00;;;;;;;3.92;3.42;;;17.90;48.90;;;;;;4994880;28;20198;-71
2022/11/28 07:15:29;;;;;;;3.42;3.13;;;17.90;48.60;;;;;;4994879;28;20208;-71
2022/11/28 07:17:56;;;;;;;3.45;3.15;;;17.90;48.60;;;;;;4978891;28;20233;-71
2022/11/28 07:20:24;;;;;;;3.85;3.45;;;17.90;48.60;;;;;;4995431;28;20221;-71
2022/11/28 07:22:51;;;;;;;4.30;3.42;;;18.00;48.60;;;;;;4995133;28;20197;-71
2022/11/28 07:25:18;;;;;;;4.10;3.42;;;18.00;48.60;;;;;;4994866;28;20197;-71
2022/11/28 07:27:45;;;;;;;3.42;3.13;;;18.00;48.80;;;;;;4996194;28;20186;-71
2022/11/28 07:30:12;;;;;;;3.22;2.92;;;18.00;48.60;;;;;;4994930;28;20225;-71
2022/11/28 07:32:41;;;;;;;3.83;3.53;;;18.00;48.60;;;;;;5010912;28;20201;-71
2022/11/28 07:35:08;;;;;;;3.67;3.20;;;18.00;48.70;;;;;;4994648;28;20740;-71
2022/11/28 07:37:35;;;;;;;3.33;3.03;;;18.00;48.40;;;;;;4996182;28;20213;-71
2022/11/28 07:40:03;;;;;;;3.70;3.40;;;18.00;48.60;;;;;;4994592;28;20260;-71
2022/11/28 07:42:30;;;;;;;3.47;3.17;;;18.00;48.60;;;;;;4995990;28;20193;-71
2022/11/28 07:45:03;;;;;;;3.78;3.45;;;18.10;48.70;;;;;;4994398;28;20205;-71
2022/11/28 07:47:31;;;;;;;3.50;3.20;;;18.10;48.50;;;;;;4995454;28;20197;-71
2022/11/28 07:49:59;;;;;;;3.65;3.10;;;18.00;48.60;;;;;;4994344;28;20229;-71
2022/11/28 07:52:26;;;;;;;3.58;3.28;;;18.10;48.50;;;;;;4994976;28;20225;-71
2022/11/28 07:54:53;;;;;;;3.60;3.30;;;18.10;48.40;;;;;;4994621;28;20212;-71
2022/11/28 07:57:21;;;;;;;3.83;3.38;;;18.10;48.60;;;;;;4994649;28;20225;-71
2022/11/28 07:59:47;;;;;;;3.40;3.10;;;18.10;48.40;;;;;;4994275;28;20216;-71
2022/11/28 08:02:14;;;;;;;3.15;2.90;;;18.10;48.20;;;;;;4995736;28;20197;-71
2022/11/28 08:04:41;;;;;;;3.33;3.03;;;18.10;48.50;;;;;;4994509;28;20204;-71
2022/11/28 08:07:12;;;;;;;3.72;3.30;;;18.10;48.50;;;;;;5010516;28;20207;-71
2022/11/28 08:09:39;;;;;;;3.55;3.25;;;18.10;48.30;;;;;;4995201;28;20304;-71
2022/11/28 08:12:06;;;;;;;3.60;3.30;;;18.10;48.30;;;;;;4994064;28;20205;-71
2022/11/28 08:14:33;;;;;;;4.22;3.35;;;18.10;48.30;;;;;;4995512;28;20211;-71
2022/11/28 08:17:00;;;;;;;3.65;3.35;;;18.20;48.30;;;;;;4993852;28;20231;-71
2022/11/28 08:19:27;;;;;;;3.75;3.45;;;18.10;48.60;;;;;;4995500;28;20300;-71
2022/11/28 08:21:54;;;;;;;3.22;3.03;;;18.10;48.20;;;;;;4995146;28;20193;-71
2022/11/28 08:24:23;;;;;;;3.58;3.28;;;18.20;48.30;;;;;;5010654;28;20204;-71
2022/11/28 08:26:50;;;;;;;3.83;3.53;;;18.20;48.20;;;;;;4995758;28;20649;-71
2022/11/28 08:29:17;;;;;;;3.30;3.00;;;18.20;48.30;;;;;;4997373;28;20256;-71
2022/11/28 08:31:45;;;;;;;3.92;3.50;;;18.20;48.30;;;;;;4993801;28;20224;-71
2022/11/28 08:34:12;;;;;;;4.07;3.35;;;18.20;48.10;;;;;;4994828;28;20189;-71
2022/11/28 08:36:39;;;;;;;3.65;3.35;;;18.20;48.20;;;;;;4993457;28;20582;-71
2022/11/28 08:39:06;;;;;;;4.00;3.60;;;18.20;48.10;;;;;;4994610;28;20751;-71
2022/11/28 08:41:35;;;;;;;3.83;3.40;;;18.20;48.10;;;;;;4993479;28;20205;-71
2022/11/28 08:44:02;;;;;;;4.22;3.60;;;18.20;48.10;;;;;;4993424;28;20201;-71
2022/11/28 08:46:29;;;;;;;3.40;3.10;;;18.20;48.10;;;;;;4993418;28;20197;-71
2022/11/28 08:48:56;;;;;;;5.22;3.53;;;18.20;48.00;;;;;;4993487;28;20219;-71
2022/11/28 08:51:24;;;;;;;3.53;3.22;;;18.20;48.10;;;;;;4993324;28;20208;-71
2022/11/28 08:53:51;;;;;;;3.50;3.20;;;18.30;48.10;;;;;;4993464;28;20248;-71
2022/11/28 08:56:18;;;;;;;3.80;3.40;;;18.20;48.10;;;;;;4994787;28;20205;-71
2022/11/28 08:58:46;;;;;;;4.22;3.85;;;18.30;48.10;;;;;;4993844;28;20311;-71
2022/11/28 09:01:18;;;;;;;3.80;3.50;;;18.30;47.70;;;;;;4993450;28;20295;-71
2022/11/28 09:03:45;;;;;;;4.20;3.42;;;18.30;47.70;;;;;;4993352;28;20205;-71
2022/11/28 09:06:13;;;;;;;4.00;3.35;;;18.40;47.50;;;;;;4994253;28;20189;-71
2022/11/28 09:08:40;;;;;;;4.10;3.53;;;18.30;47.70;;;;;;4993325;28;20695;-71
2022/11/28 09:11:08;;;;;;;4.28;3.88;;;18.40;47.50;;;;;;4994807;28;20190;-71
2022/11/28 09:13:35;;;;;;;4.15;3.75;;;18.30;47.60;;;;;;4993068;28;20685;-71
2022/11/28 09:16:04;;;;;;;3.90;3.50;;;18.40;47.50;;;;;;4992980;28;20198;-71
2022/11/28 09:18:31;;;;;;;3.80;3.50;;;18.40;47.50;;;;;;4994197;28;20252;-70
2022/11/28 09:20:59;;;;;;;3.78;3.47;;;18.40;47.30;;;;;;4995902;28;20224;-71
2022/11/28 09:23:26;;;;;;;4.55;4.00;;;18.40;47.40;;;;;;4997038;28;20220;-71
2022/11/28 09:25:53;;;;;;;3.90;3.50;;;18.40;47.00;;;;;;4997021;28;20653;-70
2022/11/28 09:28:20;;;;;;;5.07;3.70;;;18.40;47.30;;;;;;5013436;28;20201;-71
2022/11/28 09:30:47;;;;;;;3.72;3.42;;;18.40;47.40;;;;;;4996904;28;20204;-71
2022/11/28 09:33:16;;;;;;;4.32;3.92;;;18.40;47.30;;;;;;4996723;28;20205;-71
2022/11/28 09:35:43;;;;;;;3.92;3.63;;;18.40;47.50;;;;;;4996633;28;20680;-71
2022/11/28 09:38:11;;;;;;;4.28;3.40;;;18.40;47.40;;;;;;4996580;28;20219;-71
2022/11/28 09:40:39;;;;;;;3.85;3.30;;;18.50;47.60;;;;;;4996921;28;20232;-71
2022/11/28 09:43:10;;;;;;;4.40;4.00;;;18.40;47.50;;;;;;5012937;28;20202;-71
2022/11/28 09:45:37;;;;;;;4.38;3.97;;;18.40;47.30;;;;;;4996564;28;20201;-71
2022/11/28 09:48:08;;;;;;;4.30;3.90;;;18.40;47.30;;;;;;4996398;28;20203;-71
2022/11/28 09:50:36;;;;;;;4.13;3.72;;;18.50;47.30;;;;;;4996490;28;20201;-71
2022/11/28 09:53:11;;;;;;;4.13;3.72;;;18.50;47.30;;;;;;4996678;28;20210;-71
2022/11/28 09:55:39;;;;;;;4.38;3.63;;;18.50;47.10;;;;;;4996408;28;20623;-71
2022/11/28 09:58:11;;;;;;;4.25;3.67;;;18.50;47.00;;;;;;4996212;28;20227;-71
2022/11/28 10:00:41;;;;;;;3.90;3.50;;;18.50;47.30;;;;;;4980149;28;20198;-71
2022/11/28 10:03:29;;;;;;;4.20;3.80;;;18.50;47.20;;;;;;4996280;28;20211;-71
2022/11/28 10:06:02;;;;;;;4.32;3.92;;;18.50;47.40;;;;;;4997266;28;20204;-71
2022/11/28 10:08:32;;;;;;;4.95;3.75;;;18.50;47.30;;;;;;4996199;28;20221;-71
2022/11/28 10:11:02;;;;;;;3.90;3.50;;;18.50;47.20;;;;;;4996221;28;20208;-71
2022/11/28 10:13:36;;;;;;;4.45;3.80;;;18.50;47.30;;;;;;4996596;28;20261;-71
2022/11/28 10:16:06;;;;;;;3.83;3.38;;;18.60;47.10;;;;;;4997186;28;20636;-71
2022/11/28 10:18:39;;;;;;;3.95;3.65;;;18.50;47.10;;;;;;4996197;28;20221;-71
2022/11/28 10:21:15;;;;;;;4.20;3.88;;;18.50;47.00;;;;;;4997965;28;20212;-71
2022/11/28 10:23:43;;;;;;;4.03;3.63;;;18.50;47.20;;;;;;4997232;28;20536;-71
2022/11/28 10:26:15;;;;;;;4.00;3.65;;;18.50;47.10;;;;;;4995789;28;20194;-71
2022/11/28 10:28:43;;;;;;;4.15;3.80;;;18.50;47.10;;;;;;4997799;28;20202;-71
2022/11/28 10:31:12;;;;;;;4.07;3.67;;;18.50;47.10;;;;;;4996390;28;20201;-71
2022/11/28 10:33:42;;;;;;;4.10;3.38;;;18.50;47.10;;;;;;4996200;28;20200;-71
2022/11/28 10:36:14;;;;;;;4.78;3.40;;;18.50;47.10;;;;;;4996735;28;20225;-71
2022/11/28 10:38:41;;;;;;;4.03;3.72;;;18.50;47.00;;;;;;4995710;28;20268;-71
2022/11/28 10:41:12;;;;;;;3.95;3.60;;;18.60;47.20;;;;;;4995971;28;20193;-71
2022/11/28 10:43:43;;;;;;;4.35;3.70;;;18.60;47.10;;;;;;4995578;28;20228;-71
2022/11/28 10:46:23;;;;;;;4.30;3.88;;;18.60;47.00;;;;;;4995596;28;20212;-71
2022/11/28 10:48:52;;;;;;;4.07;3.67;;;18.60;46.70;;;;;;4995648;28;20231;-71
2022/11/28 10:51:28;;;;;;;4.13;3.70;;;18.60;46.80;;;;;;4996654;28;20200;-71
2022/11/28 10:54:01;;;;;;;3.65;3.35;;;18.60;46.90;;;;;;4996541;28;20182;-71
2022/11/28 10:56:33;;;;;;;4.60;4.20;;;18.60;47.00;;;;;;4996612;28;20529;-71
2022/11/28 10:59:03;;;;;;;4.78;3.88;;;18.60;46.80;;;;;;4995258;28;20217;-71
2022/11/28 11:01:31;;;;;;;4.20;3.80;;;18.60;46.90;;;;;;4996873;28;20198;-70
2022/11/28 11:03:58;;;;;;;4.28;3.80;;;18.60;46.80;;;;;;5011407;28;20636;-71
2022/11/28 11:06:27;;;;;;;4.00;3.67;;;18.60;46.80;;;;;;4996208;28;20185;-71
2022/11/28 11:08:53;;;;;;;3.85;3.55;;;18.60;46.70;;;;;;4995096;28;20711;-71
2022/11/28 11:11:24;;;;;;;4.35;3.95;;;18.70;46.90;;;;;;4996484;28;20215;-71
2022/11/28 11:13:59;;;;;;;4.28;3.88;;;18.70;46.80;;;;;;4995836;28;20225;-71
2022/11/28 11:16:27;;;;;;;4.57;4.18;;;18.70;46.80;;;;;;4995418;28;20207;-71
2022/11/28 11:18:54;;;;;;;4.28;3.90;;;18.70;47.00;;;;;;4995036;28;20229;-71
2022/11/28 11:21:22;;;;;;;4.25;3.85;;;18.70;46.90;;;;;;4995507;28;20197;-70
2022/11/28 11:24:10;;;;;;;4.30;3.90;;;18.70;46.90;;;;;;4994916;28;20225;-71
2022/11/28 11:26:39;;;;;;;4.22;3.83;;;18.70;46.80;;;;;;4994819;28;20724;-71
2022/11/28 11:29:06;;;;;;;3.78;3.47;;;18.70;46.80;;;;;;5000117;28;20221;-71
2022/11/28 11:31:42;;;;;;;4.32;3.92;;;18.70;46.70;;;;;;5019487;28;20216;-71
2022/11/28 11:34:14;;;;;;;4.35;3.95;;;18.70;46.70;;;;;;5000414;28;20288;-71
2022/11/28 11:36:41;;;;;;;4.45;4.05;;;18.70;47.00;;;;;;4995924;28;20180;-71
2022/11/28 11:39:20;;;;;;;4.05;3.65;;;18.70;46.80;;;;;;4994779;28;20222;-71
2022/11/28 11:41:48;;;;;;;4.53;4.13;;;18.80;47.00;;;;;;4994527;28;20197;-71
2022/11/28 11:44:33;;;;;;;4.30;3.90;;;18.80;47.00;;;;;;4993403;28;20217;-71
2022/11/28 11:47:02;;;;;;;4.32;3.92;;;18.80;47.00;;;;;;4994472;28;20197;-71
2022/11/28 11:49:31;;;;;;;4.78;3.97;;;18.80;46.90;;;;;;4994933;28;20218;-71
2022/11/28 11:51:59;;;;;;;4.40;4.00;;;18.80;46.70;;;;;;4994364;28;20207;-71
2022/11/28 11:54:28;;;;;;;4.15;3.85;;;18.80;46.80;;;;;;4995989;28;20196;-71
2022/11/28 11:56:55;;;;;;;4.97;4.10;;;18.80;47.00;;;;;;4995512;28;20200;-71
2022/11/28 11:59:24;;;;;;;4.13;3.83;;;18.80;47.10;;;;;;4994405;28;20217;-71
2022/11/28 12:01:55;;;;;;;4.20;3.88;;;18.80;47.20;;;;;;4994717;28;20313;-71
2022/11/28 12:04:24;;;;;;;4.43;3.90;;;18.80;47.00;;;;;;4995176;28;20212;-71
2022/11/28 12:06:52;;;;;;;4.03;3.63;;;18.80;47.10;;;;;;4994154;28;20209;-71
2022/11/28 12:09:24;;;;;;;4.20;3.80;;;18.80;47.00;;;;;;4994310;28;20221;-71
2022/11/28 12:11:55;;;;;;;4.45;4.03;;;18.80;47.20;;;;;;4995533;28;20701;-71
2022/11/28 12:14:27;;;;;;;4.40;4.00;;;18.80;47.20;;;;;;4993966;28;20193;-71
2022/11/28 12:17:01;;;;;;;4.10;3.70;;;18.80;47.90;;;;;;4994036;28;20212;-71
2022/11/28 12:19:31;;;;;;;4.68;4.20;;;18.80;47.30;;;;;;4994250;28;20220;-71
2022/11/28 12:22:04;;;;;;;4.35;3.90;;;18.80;47.20;;;;;;5003121;28;20201;-71
2022/11/28 12:24:34;;;;;;;4.90;4.18;;;18.80;47.20;;;;;;4996044;28;20566;-71
2022/11/28 12:27:05;;;;;;;4.47;4.07;;;18.80;47.20;;;;;;4993969;28;20206;-70
2022/11/28 12:29:38;;;;;;;4.80;4.00;;;18.80;47.20;;;;;;4995980;28;20362;-71
2022/11/28 12:32:14;;;;;;;4.28;3.88;;;18.80;47.20;;;;;;5010649;28;20228;-71
2022/11/28 12:34:45;;;;;;;4.60;4.20;;;18.90;47.30;;;;;;4995098;28;20182;-71
2022/11/28 12:37:18;;;;;;;4.25;3.85;;;18.80;47.10;;;;;;4993569;28;20193;-71
2022/11/28 12:39:49;;;;;;;4.15;3.83;;;18.90;47.10;;;;;;4993870;28;20232;-71
2022/11/28 12:42:39;;;;;;;4.40;4.00;;;18.80;47.10;;;;;;4994371;28;20201;-71
2022/11/28 12:45:22;;;;;;;4.68;4.28;;;18.90;47.20;;;;;;4993791;28;20201;-71
2022/11/28 12:47:53;;;;;;;4.80;4.35;;;18.80;47.20;;;;;;4993461;28;20185;-71
2022/11/28 12:50:29;;;;;;;4.40;4.00;;;18.90;47.20;;;;;;4994699;28;20225;-71
2022/11/28 12:53:02;;;;;;;4.68;4.25;;;18.90;47.30;;;;;;4993318;28;20263;-71
2022/11/28 12:55:33;;;;;;;5.72;4.07;;;18.90;47.20;;;;;;4992973;28;20649;-71
2022/11/28 12:58:04;;;;;;;4.38;3.97;;;18.90;47.20;;;;;;4993224;28;20588;-71
2022/11/28 13:00:31;;;;;;;4.45;4.05;;;18.80;47.20;;;;;;4993191;28;20696;-71